createdAt,value
2022-12-23T00:00:46.342Z,49.30
2022-12-23T00:03:25.393Z,47.30
2022-12-23T00:05:53.531Z,47.40
2022-12-23T00:08:21.893Z,47.90
2022-12-23T00:10:51.300Z,49.50
2022-12-23T00:13:37.879Z,48.10
2022-12-23T00:16:07.055Z,47.60
2022-12-23T00:18:34.786Z,46.90
2022-12-23T00:21:08.793Z,45.50
2022-12-23T00:23:39.574Z,46.40
2022-12-23T00:26:08.184Z,45.00
2022-12-23T00:28:35.804Z,44.60
2022-12-23T00:31:05.563Z,45.30
2022-12-23T00:33:36.690Z,44.90
2022-12-23T00:36:18.567Z,44.80
2022-12-23T00:39:05.295Z,41.90
2022-12-23T00:41:52.377Z,44.70
2022-12-23T00:44:20.221Z,41.50
2022-12-23T00:46:48.238Z,41.10
2022-12-23T00:49:36.028Z,43.30
2022-12-23T00:52:05.065Z,41.40
2022-12-23T00:54:32.857Z,41.50
2022-12-23T00:57:01.202Z,43.10
2022-12-23T00:59:28.966Z,41.30
2022-12-23T01:02:15.625Z,41.50
2022-12-23T01:05:02.155Z,41.80
2022-12-23T01:07:29.916Z,42.60
2022-12-23T01:09:57.622Z,41.60
2022-12-23T01:12:25.436Z,43.00
2022-12-23T01:14:53.119Z,41.60
2022-12-23T01:17:20.985Z,40.80
2022-12-23T01:19:48.949Z,39.80
2022-12-23T01:22:16.768Z,40.20
2022-12-23T01:24:44.445Z,38.10
2022-12-23T01:27:12.211Z,36.80
2022-12-23T01:29:39.815Z,33.10
2022-12-23T01:32:07.628Z,35.40
2022-12-23T01:34:37.590Z,34.50
2022-12-23T01:37:05.644Z,38.30
2022-12-23T01:39:33.359Z,38.10
2022-12-23T01:42:19.804Z,37.90
2022-12-23T01:44:50.549Z,38.50
2022-12-23T01:47:30.238Z,38.90
2022-12-23T01:50:05.307Z,38.20
2022-12-23T01:52:36.412Z,39.20
2022-12-23T01:55:04.293Z,38.70
2022-12-23T01:57:32.096Z,35.40
2022-12-23T02:00:18.592Z,36.10
2022-12-23T02:03:05.574Z,35.50
2022-12-23T02:05:34.593Z,36.50
2022-12-23T02:08:21.515Z,34.90
2022-12-23T02:10:52.234Z,35.00
2022-12-23T02:13:31.644Z,33.70
2022-12-23T02:16:17.782Z,34.50
2022-12-23T02:19:10.416Z,35.80
2022-12-23T02:21:57.271Z,34.20
2022-12-23T02:25:04.948Z,33.50
2022-12-23T02:27:48.541Z,32.90
2022-12-23T02:30:27.271Z,33.80
2022-12-23T02:33:21.380Z,34.70
2022-12-23T02:36:08.182Z,34.40
2022-12-23T02:39:18.818Z,33.80
2022-12-23T02:42:09.246Z,35.50
2022-12-23T02:45:00.971Z,37.10
2022-12-23T02:48:00.120Z,37.50
2022-12-23T02:50:30.647Z,39.00
2022-12-23T02:53:01.858Z,39.70
2022-12-23T02:55:33.598Z,39.40
2022-12-23T02:58:05.154Z,41.10
2022-12-23T03:00:33.158Z,39.90
2022-12-23T03:03:01.082Z,38.50
2022-12-23T03:05:34.059Z,37.80
2022-12-23T03:08:04.246Z,37.40
2022-12-23T03:11:02.714Z,38.10
2022-12-23T03:13:39.539Z,36.50
2022-12-23T03:16:24.342Z,37.60
2022-12-23T03:19:21.018Z,36.70
2022-12-23T03:22:14.814Z,35.90
2022-12-23T03:24:52.845Z,36.00
2022-12-23T03:27:49.994Z,36.40
2022-12-23T03:30:19.130Z,36.30
2022-12-23T03:33:00.410Z,38.80
2022-12-23T03:35:34.223Z,38.30
2022-12-23T03:38:03.185Z,37.80
2022-12-23T03:40:36.971Z,38.20
2022-12-23T03:43:09.045Z,38.70
2022-12-23T03:45:43.711Z,38.80
2022-12-23T03:48:24.330Z,40.50
2022-12-23T03:50:55.977Z,39.10
2022-12-23T03:53:27.674Z,38.40
2022-12-23T03:55:59.376Z,39.50
2022-12-23T03:58:42.248Z,40.00
2022-12-23T04:01:12.048Z,38.20
2022-12-23T04:04:01.709Z,38.50
2022-12-23T04:06:35.023Z,38.40
2022-12-23T04:09:03.333Z,38.20
2022-12-23T04:11:31.122Z,37.90
2022-12-23T04:13:58.822Z,39.60
2022-12-23T04:16:27.549Z,39.90
2022-12-23T04:18:55.798Z,40.20
2022-12-23T04:21:23.461Z,41.60
2022-12-23T04:23:51.472Z,43.10
2022-12-23T04:26:19.096Z,43.40
2022-12-23T04:28:46.743Z,41.70
2022-12-23T04:31:14.441Z,41.50
2022-12-23T04:33:42.162Z,42.00
2022-12-23T04:36:09.816Z,42.20
2022-12-23T04:38:37.469Z,40.70
2022-12-23T04:41:05.130Z,39.90
2022-12-23T04:43:32.874Z,39.50
2022-12-23T04:46:00.564Z,39.00
2022-12-23T04:48:28.227Z,40.80
2022-12-23T04:50:55.881Z,40.20
2022-12-23T04:53:23.537Z,41.10
2022-12-23T04:55:51.905Z,41.50
2022-12-23T04:58:22.171Z,41.70
2022-12-23T05:00:49.986Z,42.70
2022-12-23T05:03:18.126Z,39.40
2022-12-23T05:05:46.113Z,39.70
2022-12-23T05:08:13.762Z,41.00
2022-12-23T05:10:41.441Z,39.20
2022-12-23T05:13:09.058Z,38.00
2022-12-23T05:15:36.700Z,37.70
2022-12-23T05:18:04.594Z,38.40
2022-12-23T05:20:32.270Z,37.50
2022-12-23T05:22:59.943Z,38.50
2022-12-23T05:25:27.609Z,38.40
2022-12-23T05:27:55.338Z,38.70
2022-12-23T05:30:22.980Z,40.20
2022-12-23T05:32:54.482Z,42.40
2022-12-23T05:35:23.330Z,41.30
2022-12-23T05:37:51.713Z,39.80
2022-12-23T05:40:23.695Z,41.30
2022-12-23T05:42:53.262Z,41.70
2022-12-23T05:45:21.280Z,42.50
2022-12-23T05:47:48.919Z,44.00
2022-12-23T05:50:16.682Z,43.90
2022-12-23T05:52:44.282Z,42.40
2022-12-23T05:55:11.918Z,43.10
2022-12-23T05:57:39.565Z,42.30
2022-12-23T06:00:08.023Z,43.00
2022-12-23T06:02:40.916Z,41.20
2022-12-23T06:05:09.341Z,40.80
2022-12-23T06:07:37.998Z,42.30
2022-12-23T06:10:07.246Z,40.30
2022-12-23T06:12:35.347Z,40.40
2022-12-23T06:15:04.256Z,39.20
2022-12-23T06:17:31.994Z,41.90
2022-12-23T06:20:00.017Z,41.40
2022-12-23T06:22:27.764Z,40.70
2022-12-23T06:24:55.443Z,42.30
2022-12-23T06:27:23.099Z,41.50
2022-12-23T06:29:50.778Z,42.80
2022-12-23T06:32:18.550Z,42.50
2022-12-23T06:34:46.908Z,43.90
2022-12-23T06:37:14.898Z,44.20
2022-12-23T06:39:42.541Z,45.00
2022-12-23T06:42:10.173Z,44.30
2022-12-23T06:44:37.807Z,44.40
2022-12-23T06:47:05.599Z,42.40
2022-12-23T06:49:33.300Z,42.40
2022-12-23T06:52:01.052Z,43.20
2022-12-23T06:54:28.655Z,42.10
2022-12-23T06:56:56.479Z,39.80
2022-12-23T06:59:24.228Z,42.60
2022-12-23T07:01:51.934Z,38.20
2022-12-23T07:04:19.691Z,39.10
2022-12-23T07:06:47.380Z,39.30
2022-12-23T07:09:15.439Z,39.50
2022-12-23T07:11:43.111Z,38.60
2022-12-23T07:14:11.624Z,38.80
2022-12-23T07:16:39.357Z,39.50
2022-12-23T07:19:07.091Z,41.50
2022-12-23T07:21:36.684Z,41.30
2022-12-23T07:24:05.327Z,39.40
2022-12-23T07:26:33.021Z,38.90
2022-12-23T07:29:01.650Z,40.90
2022-12-23T07:31:29.359Z,38.50
2022-12-23T07:33:57.026Z,37.40
2022-12-23T07:36:24.710Z,37.00
2022-12-23T07:38:52.387Z,35.20
2022-12-23T07:41:20.079Z,36.60
2022-12-23T07:43:47.815Z,34.40
2022-12-23T07:46:15.646Z,33.90
2022-12-23T07:48:43.409Z,33.80
2022-12-23T07:51:11.112Z,36.50
2022-12-23T07:53:38.811Z,31.90
2022-12-23T07:56:06.739Z,35.30
2022-12-23T07:58:34.411Z,33.50
2022-12-23T08:01:08.088Z,33.30
2022-12-23T08:03:36.764Z,31.70
2022-12-23T08:06:12.564Z,33.90
2022-12-23T08:08:41.351Z,33.00
2022-12-23T08:11:10.578Z,33.20
2022-12-23T08:13:40.643Z,33.20
2022-12-23T08:16:09.176Z,32.60
2022-12-23T08:18:39.030Z,37.60
2022-12-23T08:21:10.648Z,35.00
2022-12-23T08:23:38.300Z,36.20
2022-12-23T08:26:09.769Z,35.80
2022-12-23T08:28:38.464Z,35.80
2022-12-23T08:31:12.134Z,35.20
2022-12-23T08:33:42.151Z,50.20
2022-12-23T08:36:17.627Z,52.60
2022-12-23T08:38:51.935Z,43.50
2022-12-23T08:41:24.049Z,37.80
2022-12-23T08:43:52.007Z,36.50
2022-12-23T08:46:20.315Z,36.20
2022-12-23T08:48:49.654Z,38.80
2022-12-23T08:51:19.808Z,36.20
2022-12-23T08:53:47.605Z,40.90
2022-12-23T08:56:21.108Z,35.50
2022-12-23T08:58:51.140Z,36.70
2022-12-23T09:01:21.201Z,39.20
2022-12-23T09:03:49.052Z,36.40
2022-12-23T09:06:21.885Z,35.70
2022-12-23T09:08:52.650Z,39.60
2022-12-23T09:11:23.543Z,36.40
2022-12-23T09:13:51.367Z,35.50
2022-12-23T09:16:19.299Z,34.00
2022-12-23T09:18:47.101Z,35.50
2022-12-23T09:21:18.127Z,36.50
2022-12-23T09:23:46.563Z,35.40
2022-12-23T09:26:20.391Z,35.70
2022-12-23T09:28:48.148Z,34.50
2022-12-23T09:31:16.148Z,37.30
2022-12-23T09:33:47.200Z,34.80
2022-12-23T09:36:14.946Z,35.40
2022-12-23T09:38:42.863Z,36.40
2022-12-23T09:41:32.742Z,37.60
2022-12-23T09:44:24.322Z,36.80
2022-12-23T09:46:56.099Z,36.10
2022-12-23T09:49:24.041Z,37.40
2022-12-23T09:51:54.146Z,36.60
2022-12-23T09:54:28.952Z,36.90
2022-12-23T09:57:03.546Z,38.60
2022-12-23T09:59:52.122Z,36.10
2022-12-23T10:02:57.524Z,35.80
2022-12-23T10:05:32.658Z,34.30
2022-12-23T10:08:08.944Z,34.70
2022-12-23T10:10:52.884Z,35.40
2022-12-23T10:13:42.504Z,35.90
2022-12-23T10:16:18.611Z,35.20
2022-12-23T10:18:53.726Z,35.10
2022-12-23T10:21:47.117Z,34.60
2022-12-23T10:24:26.208Z,37.60
2022-12-23T10:26:57.156Z,35.50
2022-12-23T10:29:31.446Z,33.40
2022-12-23T10:32:05.326Z,33.90
2022-12-23T10:34:48.976Z,33.40
2022-12-23T10:37:29.279Z,33.60
2022-12-23T10:40:05.097Z,34.90
2022-12-23T10:42:42.341Z,33.20
2022-12-23T10:45:25.441Z,31.00
2022-12-23T10:48:06.065Z,32.40
2022-12-23T10:50:47.467Z,35.60
2022-12-23T10:53:40.463Z,31.50
2022-12-23T10:56:09.190Z,33.60
2022-12-23T10:58:40.568Z,33.40
2022-12-23T11:01:15.211Z,36.60
2022-12-23T11:04:02.495Z,30.20
2022-12-23T11:06:37.413Z,33.70
2022-12-23T11:09:06.686Z,32.30
2022-12-23T11:11:56.001Z,33.10
2022-12-23T11:14:42.199Z,39.20
2022-12-23T11:17:25.318Z,35.10
2022-12-23T11:20:12.422Z,34.10
2022-12-23T11:22:48.977Z,33.10
2022-12-23T11:25:32.392Z,33.40
2022-12-23T11:28:07.632Z,35.40
2022-12-23T11:30:38.878Z,33.50
2022-12-23T11:33:06.596Z,33.40
2022-12-23T11:35:36.606Z,38.00
2022-12-23T11:38:04.503Z,33.20
2022-12-23T11:40:36.192Z,37.50
2022-12-23T11:43:06.589Z,37.70
2022-12-23T11:45:36.807Z,35.80
2022-12-23T11:48:06.125Z,46.20
2022-12-23T11:50:36.198Z,62.10
2022-12-23T11:53:12.643Z,155.80
2022-12-23T11:55:46.925Z,123.90
2022-12-23T11:58:20.049Z,70.40
2022-12-23T12:00:56.143Z,42.30
2022-12-23T12:03:28.928Z,43.40
2022-12-23T12:05:59.996Z,33.50
2022-12-23T12:08:34.052Z,41.40
2022-12-23T12:11:05.946Z,53.30
2022-12-23T12:13:39.748Z,60.80
2022-12-23T12:16:26.604Z,51.50
2022-12-23T12:18:56.153Z,37.50
2022-12-23T12:21:28.397Z,40.80
2022-12-23T12:24:22.287Z,38.00
2022-12-23T12:26:52.962Z,49.80
2022-12-23T12:29:38.906Z,47.10
2022-12-23T12:32:30.336Z,33.30
2022-12-23T12:35:06.350Z,37.50
2022-12-23T12:37:41.808Z,35.20
2022-12-23T12:40:26.034Z,34.90
2022-12-23T12:43:19.486Z,34.40
2022-12-23T12:45:53.976Z,36.20
2022-12-23T12:49:01.347Z,50.50
2022-12-23T12:51:57.083Z,50.80
2022-12-23T12:54:24.781Z,48.50
2022-12-23T12:56:55.352Z,36.70
2022-12-23T12:59:28.479Z,42.10
2022-12-23T13:02:31.163Z,33.60
2022-12-23T13:05:12.739Z,34.00
2022-12-23T13:07:58.182Z,37.30
2022-12-23T13:10:57.997Z,36.20
2022-12-23T13:13:45.575Z,35.90
2022-12-23T13:16:16.388Z,39.50
2022-12-23T13:19:04.138Z,41.30
2022-12-23T13:21:39.409Z,41.70
2022-12-23T13:24:25.813Z,41.60
2022-12-23T13:27:06.658Z,42.70
2022-12-23T13:29:44.049Z,45.10
2022-12-23T13:32:26.872Z,39.10
2022-12-23T13:35:08.919Z,38.80
2022-12-23T13:37:50.362Z,43.10
2022-12-23T13:40:56.080Z,43.60
2022-12-23T13:43:25.449Z,47.70
2022-12-23T13:45:54.468Z,49.70
2022-12-23T13:49:10.439Z,46.90
2022-12-23T13:52:10.462Z,46.30
2022-12-23T13:54:50.604Z,54.50
2022-12-23T13:57:27.821Z,98.10
2022-12-23T14:00:18.545Z,115.80
2022-12-23T14:02:58.288Z,57.60
2022-12-23T14:05:36.746Z,70.70
2022-12-23T14:08:07.675Z,62.50
2022-12-23T14:10:35.616Z,61.50
2022-12-23T14:13:06.190Z,66.30
2022-12-23T14:16:31.243Z,59.90
2022-12-23T14:19:14.208Z,51.50
2022-12-23T14:22:07.424Z,58.80
2022-12-23T14:25:14.157Z,55.80
2022-12-23T14:28:16.073Z,60.20
2022-12-23T14:30:47.067Z,63.90
2022-12-23T14:33:25.921Z,62.40
2022-12-23T14:35:56.608Z,61.40
2022-12-23T14:38:26.735Z,59.60
2022-12-23T14:41:00.106Z,89.40
2022-12-23T14:43:31.652Z,71.40
2022-12-23T14:46:00.283Z,52.30
2022-12-23T14:48:33.848Z,54.80
2022-12-23T14:51:13.952Z,54.60
2022-12-23T14:53:59.723Z,50.00
2022-12-23T14:56:40.269Z,47.10
2022-12-23T14:59:09.046Z,48.50
2022-12-23T15:01:47.720Z,49.80
2022-12-23T15:04:27.875Z,53.40
2022-12-23T15:07:02.226Z,57.60
2022-12-23T15:09:38.879Z,71.10
2022-12-23T15:12:14.129Z,71.20
2022-12-23T15:14:46.151Z,64.10
2022-12-23T15:17:32.422Z,68.80
2022-12-23T15:20:13.193Z,64.10
2022-12-23T15:22:43.694Z,67.30
2022-12-23T15:25:30.681Z,63.30
2022-12-23T15:28:02.138Z,67.20
2022-12-23T15:30:34.169Z,63.90
2022-12-23T15:33:06.394Z,60.10
2022-12-23T15:35:45.831Z,60.10
2022-12-23T15:38:16.133Z,60.60
2022-12-23T15:40:44.458Z,62.00
2022-12-23T15:43:23.891Z,68.00
2022-12-23T15:45:52.563Z,68.40
2022-12-23T15:48:24.540Z,63.00
2022-12-23T15:50:55.851Z,66.40
2022-12-23T15:53:28.542Z,65.60
2022-12-23T15:55:56.267Z,69.60
2022-12-23T15:58:24.543Z,65.30
2022-12-23T16:00:58.040Z,64.10
2022-12-23T16:03:35.101Z,71.00
2022-12-23T16:06:16.238Z,69.70
2022-12-23T16:08:44.861Z,76.30
2022-12-23T16:11:15.783Z,86.40
2022-12-23T16:14:02.070Z,69.70
2022-12-23T16:16:33.216Z,71.60
2022-12-23T16:19:01.034Z,63.60
2022-12-23T16:21:32.204Z,68.60
2022-12-23T16:24:00.550Z,63.60
2022-12-23T16:26:28.598Z,64.60
2022-12-23T16:28:59.433Z,61.50
2022-12-23T16:31:27.380Z,69.50
2022-12-23T16:33:56.945Z,63.60
2022-12-23T16:36:27.871Z,69.10
2022-12-23T16:39:06.768Z,69.70
2022-12-23T16:41:35.020Z,83.10
2022-12-23T16:44:03.122Z,73.30
2022-12-23T16:46:37.320Z,77.50
2022-12-23T16:49:10.973Z,76.10
2022-12-23T16:51:39.216Z,78.20
2022-12-23T16:54:13.102Z,73.50
2022-12-23T16:56:41.446Z,76.30
2022-12-23T16:59:09.691Z,81.60
2022-12-23T17:01:40.270Z,77.50
2022-12-23T17:04:08.624Z,83.40
2022-12-23T17:06:37.398Z,88.70
2022-12-23T17:09:07.141Z,78.90
2022-12-23T17:11:37.874Z,83.10
2022-12-23T17:14:11.877Z,79.10
2022-12-23T17:16:41.385Z,84.40
2022-12-23T17:19:09.245Z,69.50
2022-12-23T17:21:38.974Z,69.50
2022-12-23T17:24:27.474Z,71.10
2022-12-23T17:26:56.981Z,65.10
2022-12-23T17:29:25.351Z,62.60
2022-12-23T17:31:53.183Z,61.50
2022-12-23T17:34:23.082Z,58.90
2022-12-23T17:36:51.576Z,56.90
2022-12-23T17:39:21.501Z,54.90
2022-12-23T17:41:49.401Z,50.20
2022-12-23T17:44:17.770Z,51.60
2022-12-23T17:46:46.487Z,47.10
2022-12-23T17:49:14.184Z,45.30
2022-12-23T17:51:42.480Z,41.20
2022-12-23T17:54:21.674Z,43.30
2022-12-23T17:56:50.033Z,42.30
2022-12-23T17:59:17.950Z,44.40
2022-12-23T18:01:45.809Z,44.10
2022-12-23T18:04:13.696Z,42.30
2022-12-23T18:06:41.434Z,48.70
2022-12-23T18:09:09.085Z,52.20
2022-12-23T18:11:41.205Z,51.90
2022-12-23T18:14:18.250Z,54.60
2022-12-23T18:16:46.539Z,60.00
2022-12-23T18:19:19.852Z,126.50
2022-12-23T18:21:47.818Z,68.80
2022-12-23T18:24:16.058Z,48.90
2022-12-23T18:26:44.778Z,46.40
2022-12-23T18:29:12.573Z,44.40
2022-12-23T18:31:50.512Z,48.90
2022-12-23T18:34:20.894Z,42.60
2022-12-23T18:36:48.932Z,46.70
2022-12-23T18:39:16.866Z,49.70
2022-12-23T18:41:44.497Z,43.00
2022-12-23T18:44:18.215Z,43.40
2022-12-23T18:46:46.529Z,42.40
2022-12-23T18:49:14.255Z,43.60
2022-12-23T18:51:41.871Z,48.10
2022-12-23T18:54:14.209Z,43.40
2022-12-23T18:56:42.633Z,44.80
2022-12-23T18:59:25.702Z,45.00
2022-12-23T19:01:57.559Z,42.60
2022-12-23T19:04:26.595Z,44.60
2022-12-23T19:06:55.730Z,63.20
2022-12-23T19:09:24.064Z,50.70
2022-12-23T19:11:52.855Z,48.20
2022-12-23T19:14:20.681Z,47.10
2022-12-23T19:16:51.860Z,65.40
2022-12-23T19:19:21.468Z,122.70
2022-12-23T19:21:49.218Z,209.80
2022-12-23T19:24:17.488Z,195.10
2022-12-23T19:26:45.234Z,193.10
2022-12-23T19:29:12.860Z,254.80
2022-12-23T19:31:40.829Z,56.30
2022-12-23T19:34:14.534Z,46.00
2022-12-23T19:36:44.059Z,52.20
2022-12-23T19:39:17.290Z,51.90
2022-12-23T19:41:45.643Z,46.40
2022-12-23T19:44:14.269Z,50.60
2022-12-23T19:46:42.244Z,51.40
2022-12-23T19:49:17.499Z,59.40
2022-12-23T19:51:48.451Z,77.60
2022-12-23T19:54:17.116Z,85.20
2022-12-23T19:56:44.922Z,82.90
2022-12-23T19:59:12.773Z,79.10
2022-12-23T20:01:40.492Z,76.00
2022-12-23T20:04:09.611Z,61.40
2022-12-23T20:06:38.353Z,81.90
2022-12-23T20:09:07.775Z,75.90
2022-12-23T20:11:38.072Z,55.50
2022-12-23T20:14:06.291Z,65.20
2022-12-23T20:16:34.326Z,66.60
2022-12-23T20:19:02.526Z,77.30
2022-12-23T20:21:30.406Z,72.30
2022-12-23T20:23:58.191Z,59.90
2022-12-23T20:26:27.265Z,62.40
2022-12-23T20:28:55.915Z,61.20
2022-12-23T20:31:28.543Z,60.10
2022-12-23T20:33:57.396Z,57.90
2022-12-23T20:36:29.422Z,61.50
2022-12-23T20:38:58.021Z,69.30
2022-12-23T20:41:27.846Z,68.00
2022-12-23T20:46:43.517Z,69.20
2022-12-23T20:49:11.366Z,72.80
2022-12-23T20:51:39.019Z,69.90
2022-12-23T20:54:06.757Z,76.40
2022-12-23T20:56:34.424Z,81.10
2022-12-23T20:59:03.838Z,80.30
2022-12-23T21:01:37.762Z,111.50
2022-12-23T21:04:08.239Z,88.60
2022-12-23T21:06:36.232Z,89.80
2022-12-23T21:09:06.721Z,80.60
2022-12-23T21:11:37.998Z,59.70
2022-12-23T21:14:07.605Z,98.30
2022-12-23T21:16:37.406Z,93.50
2022-12-23T21:19:07.451Z,87.40
2022-12-23T21:21:35.280Z,73.20
2022-12-23T21:24:04.483Z,60.20
2022-12-23T21:26:34.067Z,86.20
2022-12-23T21:29:03.879Z,133.90
2022-12-23T21:31:33.991Z,125.20
2022-12-23T21:34:01.895Z,113.40
2022-12-23T21:36:32.544Z,108.10
2022-12-23T21:39:00.633Z,101.00
2022-12-23T21:41:30.624Z,80.00
2022-12-23T21:44:00.133Z,75.80
2022-12-23T21:46:28.877Z,116.30
2022-12-23T21:48:57.675Z,85.30
2022-12-23T21:51:36.944Z,82.90
2022-12-23T21:54:08.560Z,90.50
2022-12-23T21:56:36.666Z,113.60
2022-12-23T21:59:07.131Z,118.10
2022-12-23T22:01:35.162Z,135.80
2022-12-23T22:04:02.930Z,127.30
2022-12-23T22:06:37.638Z,114.20
2022-12-23T22:09:06.502Z,82.10
2022-12-23T22:11:35.612Z,93.50
2022-12-23T22:14:05.100Z,133.50
2022-12-23T22:16:33.957Z,131.80
2022-12-23T22:19:02.834Z,88.00
2022-12-23T22:21:31.923Z,83.20
2022-12-23T22:23:59.972Z,79.30
2022-12-23T22:26:30.718Z,84.30
2022-12-23T22:29:00.308Z,81.30
2022-12-23T22:31:34.141Z,89.20
2022-12-23T22:34:02.171Z,74.30
2022-12-23T22:36:30.494Z,70.80
2022-12-23T22:39:00.029Z,72.60
2022-12-23T22:41:29.315Z,75.20
2022-12-23T22:43:57.718Z,80.50
2022-12-23T22:46:26.050Z,88.60
2022-12-23T22:48:54.597Z,83.60
2022-12-23T22:51:30.094Z,79.30
2022-12-23T22:53:58.280Z,79.80
2022-12-23T22:56:26.754Z,85.90
2022-12-23T22:58:55.189Z,85.10
2022-12-23T23:01:29.209Z,86.80
2022-12-23T23:03:58.570Z,90.50
2022-12-23T23:06:29.287Z,108.70
2022-12-23T23:08:57.959Z,89.70
2022-12-23T23:11:26.888Z,85.80
2022-12-23T23:13:55.561Z,85.60
2022-12-23T23:16:24.690Z,85.30
2022-12-23T23:18:53.035Z,82.70
2022-12-23T23:21:21.640Z,80.30
2022-12-23T23:23:49.949Z,80.60
2022-12-23T23:26:19.210Z,80.10
2022-12-23T23:28:47.053Z,80.10
2022-12-23T23:34:03.030Z,93.30
2022-12-23T23:36:30.888Z,118.50
2022-12-23T23:38:58.644Z,105.50
2022-12-23T23:41:26.349Z,129.00
2022-12-23T23:43:54.112Z,87.80
2022-12-23T23:46:21.927Z,79.30
2022-12-23T23:48:49.733Z,82.80
2022-12-23T23:51:17.469Z,95.80
2022-12-23T23:53:45.424Z,108.10
2022-12-23T23:56:13.339Z,102.40
2022-12-23T23:58:41.015Z,98.70
